Time;durP1;ratioP1;P1;durP2;ratioP2;P2;SDS_P1;SDS_P2;PMS_P1;PMS_P2;Temp;Humidity;BMP_temperature;BMP_pressure;BME280_temperature;BME280_humidity;BME280_pressure;Samples;Min_cycle;Max_cycle;Signal;HPM_P1;HPM_P2
2023/08/08 00:01:56;;;;;;;0.97;0.97;;;16.00;99.90;;;16.20;75.31;100707.34;5012086;28;20672;-67
2023/08/08 00:04:23;;;;;;;0.80;0.80;;;15.90;99.90;;;16.17;75.86;100701.50;5029504;28;21185;-66
2023/08/08 00:06:50;;;;;;;1.13;1.00;;;15.90;99.90;;;16.11;75.81;100702.09;5016441;28;20718;-65
2023/08/08 00:09:17;;;;;;;1.00;1.00;;;15.90;99.90;;;16.07;76.24;100688.41;5021934;28;21198;-68
2023/08/08 00:11:44;;;;;;;1.63;1.30;;;15.80;99.90;;;16.06;76.35;100704.31;5015558;28;21219;-67
2023/08/08 00:14:11;;;;;;;1.00;1.00;;;15.80;99.90;;;16.06;76.07;100706.94;5009230;28;20633;-67
2023/08/08 00:16:38;;;;;;;1.87;1.00;;;15.80;99.90;;;16.04;76.40;100703.63;5015720;28;20727;-64
2023/08/08 00:19:05;;;;;;;0.83;0.83;;;15.80;99.90;;;16.03;76.06;100700.19;5020886;28;21308;-67
2023/08/08 00:21:32;;;;;;;1.20;1.20;;;15.80;99.90;;;16.01;76.05;100702.13;5017924;28;21054;-66
2023/08/08 00:23:59;;;;;;;0.87;0.87;;;15.70;99.90;;;16.03;76.43;100699.34;5027260;28;20727;-65
2023/08/08 00:26:26;;;;;;;1.10;1.10;;;15.80;99.90;;;16.02;76.82;100692.41;5023938;28;20775;-66
2023/08/08 00:28:53;;;;;;;1.20;1.20;;;15.80;99.90;;;16.01;76.57;100696.88;5025182;28;20750;-66
2023/08/08 00:31:19;;;;;;;0.80;0.80;;;15.80;99.90;;;16.02;76.87;100702.94;5019116;28;20642;-67
2023/08/08 00:33:47;;;;;;;1.00;1.00;;;15.70;99.90;;;15.98;76.88;100694.53;5018707;28;20695;-65
2023/08/08 00:36:13;;;;;;;0.83;0.83;;;15.70;99.90;;;15.95;76.98;100692.16;5021202;28;20694;-66
2023/08/08 00:38:40;;;;;;;0.93;0.93;;;15.70;99.90;;;15.91;76.79;100692.59;5032759;28;20706;-66
2023/08/08 00:41:07;;;;;;;0.80;0.80;;;15.70;99.90;;;15.84;77.37;100687.09;5025240;28;20632;-64
2023/08/08 00:43:34;;;;;;;0.90;0.90;;;15.60;99.90;;;15.76;77.76;100679.06;5022824;28;20710;-66
2023/08/08 00:46:01;;;;;;;1.10;1.00;;;15.50;99.90;;;15.72;77.61;100672.44;5017206;28;20711;-66
2023/08/08 00:48:28;;;;;;;0.90;0.90;;;15.50;99.90;;;15.68;78.15;100667.59;5009790;28;20659;-66
2023/08/08 00:50:55;;;;;;;0.83;0.83;;;15.40;99.90;;;15.61;78.41;100667.31;5018709;28;20645;-67
2023/08/08 00:53:25;;;;;;;1.10;1.03;;;15.40;99.90;;;15.61;78.70;100671.78;5023512;28;20679;-66
2023/08/08 00:55:54;;;;;;;1.00;1.00;;;15.30;99.90;;;15.53;78.42;100662.78;5009168;28;20641;-66
2023/08/08 00:58:21;;;;;;;0.90;0.90;;;15.30;99.90;;;15.49;78.50;100664.03;5017686;28;20763;-66
2023/08/08 01:00:48;;;;;;;0.90;0.90;;;15.20;99.90;;;15.45;78.83;100673.19;5025474;28;20643;-66
2023/08/08 01:03:15;;;;;;;1.07;1.07;;;15.20;99.90;;;15.45;79.55;100673.19;5023036;28;20679;-66
2023/08/08 01:05:51;;;;;;;1.07;1.03;;;15.20;99.90;;;15.44;79.70;100668.88;5024146;28;20665;-66
2023/08/08 01:08:27;;;;;;;2.10;1.33;;;15.20;99.90;;;15.50;79.10;100664.88;5034420;28;20655;-68
2023/08/08 01:10:54;;;;;;;1.00;1.00;;;15.20;99.90;;;15.55;79.36;100675.78;5014386;28;20645;-66
2023/08/08 01:13:23;;;;;;;1.50;1.40;;;15.20;99.90;;;15.60;78.95;100675.34;5015923;28;20688;-67
2023/08/08 01:15:53;;;;;;;1.10;1.10;;;15.20;99.90;;;15.59;78.90;100671.09;5017539;28;20695;-66
2023/08/08 01:18:24;;;;;;;2.30;1.17;;;15.30;99.90;;;15.57;79.19;100667.78;5045349;28;21116;-66
2023/08/08 01:20:52;;;;;;;0.90;0.80;;;15.30;99.90;;;15.50;78.87;100668.31;5026518;28;20718;-67
2023/08/08 01:23:42;;;;;;;0.97;0.97;;;15.20;99.90;;;15.42;79.08;100657.63;5032727;28;20628;-66
2023/08/08 01:26:09;;;;;;;0.63;0.63;;;15.20;99.90;;;15.37;79.66;100669.56;5029284;28;20680;-66
2023/08/08 01:28:38;;;;;;;1.10;1.00;;;15.20;99.90;;;15.31;80.17;100668.28;5028038;28;20751;-65
2023/08/08 01:31:06;;;;;;;1.00;1.00;;;15.10;99.90;;;15.30;80.07;100671.91;5028043;28;20651;-65
2023/08/08 01:33:33;;;;;;;1.40;1.30;;;15.10;99.90;;;15.34;79.54;100668.03;5025266;28;20768;-65
2023/08/08 01:36:11;;;;;;;1.10;1.10;;;15.10;99.90;;;15.27;80.48;100659.03;5028663;28;20693;-65
2023/08/08 01:38:42;;;;;;;1.60;0.90;;;15.10;99.90;;;15.25;80.58;100660.13;5029073;28;20648;-66
2023/08/08 01:41:09;;;;;;;0.90;0.90;;;15.00;99.90;;;15.18;80.42;100657.22;5032002;28;20632;-67
2023/08/08 01:43:39;;;;;;;1.20;1.10;;;15.00;99.90;;;15.13;81.18;100669.97;5031464;28;20714;-66
2023/08/08 01:46:07;;;;;;;1.03;1.03;;;14.90;99.90;;;15.12;81.27;100662.25;5023597;28;21299;-65
2023/08/08 01:48:34;;;;;;;1.10;1.10;;;14.90;99.90;;;15.12;81.94;100670.13;5024945;28;20661;-65
2023/08/08 01:51:01;;;;;;;1.00;1.00;;;14.90;99.90;;;15.13;81.62;100671.78;5028918;28;20711;-66
2023/08/08 01:53:27;;;;;;;1.00;0.90;;;14.90;99.90;;;15.13;81.14;100672.59;5028770;28;20686;-66
2023/08/08 01:55:54;;;;;;;1.00;1.00;;;14.90;99.90;;;15.09;81.12;100673.00;5016658;28;21104;-67
2023/08/08 01:58:21;;;;;;;0.90;0.90;;;14.90;99.90;;;15.05;81.70;100677.72;5025353;28;20656;-66
2023/08/08 02:00:48;;;;;;;1.00;1.00;;;14.80;99.90;;;15.02;82.50;100672.72;5018642;28;20731;-66
2023/08/08 02:03:15;;;;;;;1.00;1.00;;;14.80;99.90;;;15.00;82.38;100676.47;5023999;28;20640;-66
2023/08/08 02:05:42;;;;;;;1.10;1.10;;;14.80;99.90;;;15.02;82.13;100671.91;5017399;28;20728;-66
2023/08/08 02:08:09;;;;;;;1.00;1.00;;;14.70;99.90;;;15.03;82.47;100671.78;5028932;28;20652;-66
2023/08/08 02:10:36;;;;;;;1.03;1.00;;;14.70;99.90;;;15.04;82.19;100676.06;5020598;28;20645;-66
2023/08/08 02:13:03;;;;;;;0.93;0.93;;;14.70;99.90;;;15.04;82.06;100664.72;5044584;28;20707;-67
2023/08/08 02:15:30;;;;;;;0.90;0.90;;;14.70;99.90;;;15.02;82.72;100661.38;5027538;28;20801;-66
2023/08/08 02:17:59;;;;;;;0.90;0.90;;;14.70;99.90;;;15.00;82.64;100658.06;5022387;28;20671;-67
2023/08/08 02:20:26;;;;;;;1.33;1.07;;;14.70;99.90;;;14.98;83.33;100652.97;5024341;28;20709;-66
2023/08/08 02:22:53;;;;;;;1.07;1.00;;;14.70;99.90;;;14.97;83.71;100664.41;5024848;28;20675;-65
2023/08/08 02:25:20;;;;;;;1.30;1.07;;;14.70;99.90;;;14.99;83.51;100651.97;5026048;28;20644;-66
2023/08/08 02:27:47;;;;;;;1.40;1.40;;;14.70;99.90;;;15.03;83.02;100656.00;5027563;28;21330;-63
2023/08/08 02:30:14;;;;;;;1.00;1.00;;;14.70;99.90;;;15.07;83.66;100660.03;5015459;28;20726;-66
2023/08/08 02:32:42;;;;;;;1.10;1.00;;;14.80;99.90;;;15.06;82.79;100653.09;5020352;28;20984;-66
2023/08/08 02:35:09;;;;;;;1.20;1.10;;;14.80;99.90;;;15.06;83.02;100657.50;5016569;28;21214;-66
2023/08/08 02:37:36;;;;;;;0.73;0.73;;;14.70;99.90;;;15.03;83.00;100656.00;5022074;28;20747;-66
2023/08/08 02:40:04;;;;;;;0.87;0.87;;;14.70;99.90;;;14.98;82.64;100655.59;5011707;28;21059;-66
2023/08/08 02:42:31;;;;;;;0.93;0.90;;;14.70;99.90;;;14.89;82.92;100656.41;5027597;28;20699;-65
2023/08/08 02:44:58;;;;;;;1.13;1.10;;;14.60;99.90;;;14.83;83.48;100659.59;5012272;28;20645;-65
2023/08/08 02:47:25;;;;;;;1.07;1.03;;;14.60;99.90;;;14.78;83.42;100659.16;5021000;28;20678;-65
2023/08/08 02:49:52;;;;;;;0.90;0.90;;;14.50;99.90;;;14.72;84.12;100662.31;5029021;28;20617;-66
2023/08/08 02:52:19;;;;;;;0.83;0.83;;;14.50;99.90;;;14.71;83.71;100660.69;5018556;28;20639;-66
2023/08/08 02:54:46;;;;;;;1.00;1.00;;;14.40;99.90;;;14.70;84.37;100662.47;5014728;28;20680;-63
2023/08/08 02:57:13;;;;;;;0.70;0.70;;;14.40;99.90;;;14.67;84.37;100657.47;5019476;28;20671;-62
2023/08/08 02:59:40;;;;;;;0.93;0.93;;;14.40;99.90;;;14.68;84.28;100658.31;5013345;28;20640;-66
2023/08/08 03:02:07;;;;;;;1.13;0.80;;;14.40;99.90;;;14.64;84.84;100654.31;5029568;28;20652;-66
2023/08/08 03:04:34;;;;;;;0.93;0.93;;;14.40;99.90;;;14.60;84.62;100652.91;5030056;28;20617;-66
2023/08/08 03:07:03;;;;;;;0.83;0.83;;;14.30;99.90;;;14.54;85.12;100653.47;5030232;28;20689;-66
2023/08/08 03:09:31;;;;;;;1.10;1.10;;;14.30;99.90;;;14.48;85.21;100651.38;5025824;28;20687;-67
2023/08/08 03:11:58;;;;;;;1.30;1.20;;;14.20;99.90;;;14.43;85.84;100653.56;5026372;28;21057;-64
2023/08/08 03:14:25;;;;;;;1.00;1.00;;;14.20;99.90;;;14.40;85.95;100651.19;5029579;28;20671;-67
2023/08/08 03:16:52;;;;;;;0.90;0.90;;;14.10;99.90;;;14.34;86.02;100649.09;5019400;28;20707;-64
2023/08/08 03:19:19;;;;;;;1.07;1.00;;;14.10;99.90;;;14.30;86.15;100653.81;5029024;28;20648;-64
2023/08/08 03:21:46;;;;;;;0.87;0.87;;;14.00;99.90;;;14.28;86.86;100647.00;5021465;28;21056;-66
2023/08/08 03:24:13;;;;;;;0.87;0.83;;;14.00;99.90;;;14.27;86.53;100645.34;5023345;28;21240;-66
2023/08/08 03:26:40;;;;;;;0.80;0.80;;;14.00;99.90;;;14.22;86.90;100652.78;5028749;28;20726;-66
2023/08/08 03:29:10;;;;;;;1.07;1.07;;;14.00;99.90;;;14.20;86.80;100644.22;5029496;28;20695;-66
2023/08/08 03:31:37;;;;;;;1.30;1.20;;;14.00;99.90;;;14.19;86.56;100653.03;5030461;28;20650;-66
2023/08/08 03:34:04;;;;;;;0.70;0.70;;;14.00;99.90;;;14.15;87.43;100644.59;5022300;28;20629;-66
2023/08/08 03:36:31;;;;;;;0.80;0.80;;;13.90;99.90;;;14.13;87.36;100643.91;5020401;28;20644;-66
2023/08/08 03:38:58;;;;;;;1.50;0.97;;;13.90;99.90;;;14.13;87.67;100643.91;5016214;28;20657;-65
2023/08/08 03:41:25;;;;;;;0.70;0.70;;;13.90;99.90;;;14.12;87.67;100642.22;5020244;28;20645;-66
2023/08/08 03:43:52;;;;;;;0.90;0.90;;;13.80;99.90;;;14.11;87.71;100645.84;5025834;28;20636;-66
2023/08/08 03:46:19;;;;;;;1.67;1.20;;;13.80;99.90;;;14.12;87.97;100638.81;5027071;28;20676;-66
2023/08/08 03:48:46;;;;;;;1.00;1.00;;;13.80;99.90;;;14.11;88.26;100640.59;5022871;28;20706;-62
2023/08/08 03:51:13;;;;;;;1.23;1.10;;;13.90;99.90;;;14.11;87.72;100643.22;5027216;28;20705;-68
2023/08/08 03:53:40;;;;;;;0.97;0.97;;;13.90;99.90;;;14.12;87.87;100646.66;5029265;28;20631;-66
2023/08/08 03:56:07;;;;;;;0.87;0.87;;;13.80;99.90;;;14.11;87.50;100648.47;5024488;28;20680;-66
2023/08/08 03:58:34;;;;;;;0.70;0.70;;;13.80;99.90;;;14.11;87.92;100656.31;5028119;28;20742;-66
2023/08/08 04:01:01;;;;;;;1.30;1.20;;;13.80;99.90;;;14.06;88.04;100653.25;5032804;28;20631;-66
2023/08/08 04:03:28;;;;;;;0.90;0.90;;;13.80;99.90;;;14.05;88.26;100656.84;5028926;28;20643;-66
2023/08/08 04:05:55;;;;;;;2.30;1.13;;;13.80;99.90;;;14.07;88.40;100659.34;5026874;28;20624;-68
2023/08/08 04:08:22;;;;;;;1.50;1.40;;;13.80;99.90;;;14.06;88.41;100662.91;5030948;28;20718;-66
2023/08/08 04:10:49;;;;;;;0.60;0.60;;;13.80;99.90;;;14.05;88.63;100658.66;5033148;28;21281;-66
2023/08/08 04:13:16;;;;;;;1.27;0.97;;;13.80;99.90;;;14.00;88.39;100653.78;5022340;28;20642;-66
2023/08/08 04:15:44;;;;;;;1.23;0.90;;;13.80;99.90;;;14.00;88.57;100653.78;5025584;28;20656;-66
2023/08/08 04:18:11;;;;;;;1.20;1.20;;;13.80;99.90;;;13.99;88.53;100654.78;5030388;28;20664;-65
2023/08/08 04:20:38;;;;;;;1.53;1.30;;;13.70;99.90;;;14.00;88.79;100649.38;5031314;28;20727;-66
2023/08/08 04:23:05;;;;;;;1.30;1.07;;;13.70;99.90;;;14.00;88.55;100653.78;5033236;28;20686;-66
2023/08/08 04:25:32;;;;;;;2.63;1.07;;;13.80;99.90;;;13.99;88.71;100652.16;5025941;28;20673;-66
2023/08/08 04:27:59;;;;;;;1.20;1.07;;;13.70;99.90;;;13.98;88.78;100651.31;5031155;28;20742;-66
2023/08/08 04:30:26;;;;;;;1.00;1.00;;;13.70;99.90;;;14.01;89.37;100652.84;5032759;28;20648;-66
2023/08/08 04:32:53;;;;;;;0.80;0.80;;;13.80;99.90;;;14.08;88.68;100658.38;5019059;28;21074;-65
2023/08/08 04:35:20;;;;;;;0.90;0.80;;;13.80;99.90;;;14.14;88.92;100661.28;5029843;28;20629;-66
2023/08/08 04:37:47;;;;;;;2.30;1.20;;;13.90;99.90;;;14.27;88.38;100661.09;5027261;28;20675;-66
2023/08/08 04:40:14;;;;;;;1.03;1.00;;;13.90;99.90;;;14.39;87.59;100658.25;5022280;28;20691;-66
2023/08/08 04:42:41;;;;;;;1.00;1.00;;;14.10;99.90;;;14.51;87.11;100664.22;5032006;28;20664;-66
2023/08/08 04:45:09;;;;;;;1.60;1.50;;;14.20;99.90;;;14.64;86.41;100667.44;5026254;28;20641;-67
2023/08/08 04:47:36;;;;;;;1.63;1.53;;;14.30;99.90;;;14.83;86.96;100666.63;5027483;28;20749;-67
2023/08/08 04:50:03;;;;;;;1.20;1.20;;;14.50;99.90;;;15.00;85.76;100661.53;5023992;28;20632;-66
2023/08/08 04:52:30;;;;;;;1.23;1.23;;;14.70;99.90;;;15.12;84.36;100670.13;5025644;28;20636;-67
2023/08/08 04:54:57;;;;;;;1.17;1.03;;;14.80;99.90;;;15.19;82.72;100666.78;5018318;28;21062;-66
2023/08/08 04:57:24;;;;;;;5.30;1.10;;;14.90;99.90;;;15.17;82.62;100662.63;5014410;28;20766;-68
2023/08/08 04:59:50;;;;;;;0.73;0.73;;;14.90;99.90;;;15.20;82.30;100657.13;5031601;28;20631;-67
2023/08/08 05:02:17;;;;;;;0.90;0.90;;;14.90;99.90;;;15.25;82.21;100663.59;5020633;28;20759;-66
2023/08/08 05:04:44;;;;;;;1.17;1.17;;;15.00;99.90;;;15.39;81.64;100657.94;5026706;28;20631;-66
2023/08/08 05:07:11;;;;;;;1.07;1.07;;;15.10;99.90;;;15.54;80.90;100672.31;5031052;28;21241;-66
2023/08/08 05:09:38;;;;;;;0.90;0.90;;;15.20;99.90;;;15.70;79.99;100660.38;5022152;28;20660;-68
2023/08/08 05:12:05;;;;;;;1.23;1.10;;;15.40;99.90;;;15.86;79.28;100666.72;5029819;28;20720;-67
2023/08/08 05:14:32;;;;;;;1.63;1.30;;;15.50;99.90;;;16.05;78.97;100663.19;5026447;28;20628;-65
2023/08/08 05:17:01;;;;;;;1.60;1.23;;;15.70;99.90;;;16.17;78.42;100662.03;5021314;28;20620;-67
2023/08/08 05:19:28;;;;;;;0.93;0.90;;;15.80;99.90;;;16.35;77.83;100660.28;5028898;28;20620;-66
2023/08/08 05:21:55;;;;;;;1.13;1.13;;;16.00;99.90;;;16.49;76.85;100658.97;5019623;28;21181;-67
2023/08/08 05:24:23;;;;;;;1.20;1.10;;;16.20;99.90;;;16.57;76.36;100657.28;5023509;28;21361;-66
2023/08/08 05:26:50;;;;;;;1.63;1.07;;;16.30;99.90;;;16.75;75.32;100665.22;5026768;28;20746;-67
2023/08/08 05:29:17;;;;;;;1.10;1.10;;;16.40;99.90;;;16.94;74.86;100659.81;5017330;28;21138;-65
2023/08/08 05:31:44;;;;;;;0.83;0.83;;;16.60;99.90;;;17.14;74.22;100655.22;5024294;28;20723;-68
2023/08/08 05:34:11;;;;;;;2.00;1.07;;;16.80;99.90;;;17.41;73.34;100657.75;5025392;28;20667;-66
2023/08/08 05:36:37;;;;;;;0.77;0.77;;;17.00;99.90;;;17.71;72.43;100655.53;5023560;28;21091;-65
2023/08/08 05:39:06;;;;;;;1.57;0.93;;;17.40;99.90;;;17.85;71.50;100656.75;5029926;28;20691;-65
2023/08/08 05:41:34;;;;;;;1.07;1.07;;;17.50;99.90;;;18.13;70.85;100660.88;5030600;28;20636;-66
2023/08/08 05:44:00;;;;;;;0.90;0.90;;;17.70;99.90;;;18.41;69.59;100661.47;5025523;28;21197;-67
2023/08/08 05:46:27;;;;;;;1.10;1.10;;;18.00;99.90;;;18.66;69.21;100657.94;5020217;28;20755;-66
2023/08/08 05:48:54;;;;;;;1.00;1.00;;;18.20;99.90;;;18.97;68.00;100652.91;5024011;28;20660;-66
2023/08/08 05:51:21;;;;;;;0.83;0.70;;;18.50;99.90;;;19.31;66.28;100657.03;5031169;28;20732;-65
2023/08/08 05:53:48;;;;;;;0.90;0.90;;;18.90;99.90;;;19.71;65.83;100661.50;5022509;28;20642;-64
2023/08/08 05:56:15;;;;;;;2.27;1.00;;;19.20;99.90;;;20.19;63.65;100654.44;5013822;28;20644;-66
2023/08/08 05:58:42;;;;;;;0.80;0.80;;;19.70;99.90;;;20.63;61.91;100648.47;5025396;28;20747;-65
2023/08/08 06:01:11;;;;;;;0.80;0.80;;;20.10;99.90;;;21.11;61.00;100663.25;5015219;28;20728;-66
2023/08/08 06:03:38;;;;;;;0.67;0.67;;;20.50;99.90;;;21.60;58.69;100659.19;5019944;28;21183;-65
2023/08/08 06:06:06;;;;;;;2.13;0.93;;;21.00;99.90;;;22.08;57.03;100665.03;5014296;28;20633;-65
2023/08/08 06:08:33;;;;;;;1.17;1.07;;;21.50;99.90;;;22.53;56.09;100662.09;5013360;28;21102;-66
2023/08/08 06:11:00;;;;;;;0.83;0.80;;;21.90;99.90;;;23.06;53.93;100659.03;5016539;28;20665;-65
2023/08/08 06:13:27;;;;;;;0.60;0.60;;;22.50;99.90;;;23.66;52.35;100655.91;5022727;28;20644;-67
2023/08/08 06:15:54;;;;;;;0.80;0.80;;;23.10;99.90;;;24.03;51.14;100669.88;5020467;28;20632;-65
2023/08/08 06:18:21;;;;;;;2.10;1.00;;;23.50;99.90;;;24.44;50.79;100655.56;5029721;28;20663;-66
2023/08/08 06:20:48;;;;;;;1.27;0.77;;;23.90;99.90;;;24.87;49.24;100660.63;5025783;28;20695;-66
2023/08/08 06:23:15;;;;;;;1.07;1.07;;;24.30;99.90;;;25.24;47.84;100665.41;5022519;28;20637;-66
2023/08/08 06:25:42;;;;;;;0.80;0.70;;;24.80;99.90;;;25.44;46.38;100665.44;5016192;28;20651;-66
2023/08/08 06:28:09;;;;;;;0.60;0.60;;;25.10;99.30;;;25.19;47.40;100665.22;5024532;28;21203;-65
2023/08/08 06:30:36;;;;;;;1.03;0.93;;;24.90;99.00;;;24.99;47.46;100659.00;5022851;28;20625;-66
2023/08/08 06:33:03;;;;;;;1.00;1.00;;;24.70;98.70;;;25.01;47.91;100656.97;5027420;28;20660;-65
2023/08/08 06:35:30;;;;;;;0.90;0.90;;;24.70;98.90;;;25.59;46.94;100661.53;5024255;28;20731;-66
2023/08/08 06:37:57;;;;;;;1.00;1.00;;;25.20;98.60;;;26.48;45.14;100667.09;5030034;28;21413;-66
2023/08/08 06:40:24;;;;;;;1.00;1.00;;;26.00;97.40;;;27.38;43.42;100667.63;5024727;28;20698;-65
2023/08/08 06:42:51;;;;;;;0.70;0.70;;;26.90;95.90;;;28.15;41.79;100668.97;5022372;28;20640;-67
2023/08/08 06:45:18;;;;;;;0.77;0.77;;;27.60;94.10;;;28.62;40.14;100670.91;5022875;28;20659;-67
2023/08/08 06:47:46;;;;;;;1.93;0.80;;;28.10;92.50;;;28.84;39.25;100666.66;5028728;28;20677;-67
2023/08/08 06:50:13;;;;;;;0.80;0.80;;;28.40;91.20;;;29.07;39.44;100665.91;5025527;28;21046;-66
2023/08/08 06:52:40;;;;;;;0.97;0.80;;;28.50;90.20;;;29.51;38.93;100667.31;5020399;28;21586;-66
2023/08/08 06:55:08;;;;;;;0.97;0.97;;;28.80;92.70;;;29.89;37.64;100670.38;5010202;28;20672;-67
2023/08/08 06:57:35;;;;;;;2.00;0.83;;;29.20;93.40;;;30.37;36.66;100661.97;5020858;28;20669;-66
2023/08/08 07:00:06;;;;;;;2.30;1.20;;;29.70;84.10;;;30.58;36.28;100662.16;5027937;28;20625;-66
2023/08/08 07:02:33;;;;;;;1.27;1.00;;;30.10;81.20;;;30.76;35.79;100666.53;5024905;28;21090;-66
2023/08/08 07:05:00;;;;;;;1.00;1.00;;;30.40;78.80;;;31.14;35.02;100664.00;5028420;28;20636;-66
2023/08/08 07:07:29;;;;;;;0.80;0.80;;;30.80;76.20;;;31.49;33.65;100666.50;5015170;28;20680;-66
2023/08/08 07:09:56;;;;;;;0.80;0.80;;;31.10;72.40;;;31.87;32.91;100661.13;5024979;28;20640;-66
2023/08/08 07:12:23;;;;;;;2.47;0.97;;;31.50;70.70;;;32.21;32.83;100663.75;5020079;28;20632;-66
2023/08/08 07:14:50;;;;;;;0.90;0.90;;;31.80;69.30;;;32.53;31.46;100667.41;5019277;28;21276;-64
2023/08/08 07:17:16;;;;;;;0.80;0.80;;;32.20;67.40;;;32.87;31.04;100661.56;5027515;28;20767;-66
2023/08/08 07:19:43;;;;;;;3.20;0.77;;;32.60;65.50;;;33.30;30.67;100667.94;5023274;28;21403;-66
2023/08/08 07:22:10;;;;;;;0.80;0.80;;;32.90;64.00;;;33.63;30.69;100654.94;5021210;28;20649;-66
2023/08/08 07:24:38;;;;;;;0.70;0.70;;;33.20;63.60;;;33.96;30.28;100661.09;5020073;28;20659;-64
2023/08/08 07:27:06;;;;;;;1.00;1.00;;;33.50;62.00;;;34.28;29.35;100657.22;5017894;28;20625;-67
2023/08/08 07:29:32;;;;;;;0.83;0.83;;;33.90;61.00;;;34.47;28.86;100662.97;5020867;28;21158;-66
2023/08/08 07:32:04;;;;;;;0.97;0.80;;;34.30;59.50;;;34.86;28.57;100661.44;5018212;28;20716;-66
2023/08/08 07:34:32;;;;;;;1.00;1.00;;;34.50;58.20;;;34.80;28.45;100648.97;5023961;28;20728;-66
2023/08/08 07:36:59;;;;;;;0.90;0.90;;;34.70;58.00;;;33.84;28.31;100652.38;5025227;28;20678;-64
2023/08/08 07:39:26;;;;;;;1.17;1.10;;;34.00;56.80;;;33.76;29.05;100655.56;5020529;28;20677;-67
2023/08/08 07:41:53;;;;;;;1.00;0.90;;;33.70;57.60;;;33.90;29.26;100654.03;5017268;28;21268;-66
2023/08/08 07:44:20;;;;;;;1.03;1.03;;;33.70;57.60;;;34.08;28.86;100646.28;5020075;28;20625;-66
2023/08/08 07:46:47;;;;;;;0.70;0.70;;;33.80;57.00;;;33.98;28.32;100650.81;5013383;28;20664;-66
2023/08/08 07:49:14;;;;;;;0.73;0.73;;;33.90;55.90;;;33.77;28.67;100658.00;5025824;28;20722;-66
2023/08/08 07:51:41;;;;;;;0.90;0.90;;;33.70;56.40;;;33.13;29.59;100646.44;5019593;28;20640;-66
2023/08/08 07:54:10;;;;;;;1.10;1.00;;;33.10;56.80;;;32.43;31.12;100641.09;5024769;28;20632;-66
2023/08/08 07:56:37;;;;;;;1.10;1.00;;;32.50;57.50;;;31.92;30.61;100633.41;5023340;28;20672;-64
2023/08/08 07:59:05;;;;;;;0.90;0.90;;;32.00;57.70;;;31.86;31.00;100635.19;5027419;28;20752;-66
2023/08/08 08:01:32;;;;;;;1.10;1.10;;;31.80;57.80;;;31.61;31.98;100642.13;5016537;28;20792;-64
2023/08/08 08:03:59;;;;;;;0.90;0.90;;;31.60;58.80;;;31.61;32.74;100632.16;5023515;28;21189;-66
2023/08/08 08:06:26;;;;;;;0.90;0.90;;;31.60;59.50;;;31.64;32.73;100637.06;5025663;28;21011;-66
2023/08/08 08:08:53;;;;;;;1.33;0.93;;;31.70;59.30;;;31.55;32.34;100635.84;5015241;28;21261;-66
2023/08/08 08:11:20;;;;;;;1.00;1.00;;;31.60;59.10;;;31.05;33.11;100643.13;5017666;28;20643;-66
2023/08/08 08:13:47;;;;;;;0.77;0.77;;;31.20;59.20;;;31.01;33.13;100644.63;5021542;28;20633;-66
2023/08/08 08:16:14;;;;;;;1.00;0.90;;;31.10;59.70;;;31.10;32.91;100640.47;5016830;28;20641;-66
2023/08/08 08:18:42;;;;;;;0.60;0.60;;;31.10;59.20;;;31.71;31.83;100637.69;5020949;28;20644;-66
2023/08/08 08:21:09;;;;;;;1.10;0.87;;;31.50;58.40;;;31.76;30.18;100635.06;5022236;28;21229;-65
2023/08/08 08:23:36;;;;;;;0.83;0.83;;;31.70;56.30;;;31.37;29.83;100642.28;5029941;28;20628;-66
2023/08/08 08:26:02;;;;;;;0.80;0.80;;;31.40;55.70;;;31.83;30.31;100637.59;5026216;28;20640;-65
2023/08/08 08:28:29;;;;;;;1.20;0.83;;;31.60;56.00;;;32.47;29.75;100636.84;5018115;28;20683;-66
2023/08/08 08:30:56;;;;;;;0.80;0.80;;;32.20;55.90;;;33.16;28.29;100651.31;5012667;28;21102;-65
2023/08/08 08:33:23;;;;;;;1.90;0.77;;;33.00;54.90;;;33.30;27.54;100643.59;5012159;28;20643;-67
2023/08/08 08:35:50;;;;;;;0.80;0.80;;;33.40;53.40;;;33.36;27.27;100640.66;5027603;28;20694;-66
2023/08/08 08:38:17;;;;;;;1.00;0.80;;;33.50;53.00;;;33.10;27.78;100638.00;5018987;28;20759;-66
2023/08/08 08:40:48;;;;;;;0.80;0.80;;;33.30;53.10;;;32.86;28.79;100635.59;5019222;28;20640;-66
2023/08/08 08:43:16;;;;;;;0.70;0.70;;;33.00;53.90;;;32.60;28.84;100631.06;5022452;28;20644;-66
2023/08/08 08:45:51;;;;;;;0.80;0.80;;;32.70;53.20;;;32.95;27.88;100632.44;5025233;28;20636;-64
2023/08/08 08:48:20;;;;;;;0.90;0.90;;;32.90;53.20;;;32.87;27.79;100637.25;5029740;28;20801;-67
2023/08/08 08:50:49;;;;;;;0.87;0.87;;;32.80;52.60;;;32.91;28.09;100634.84;5044496;28;20940;-67
2023/08/08 08:53:17;;;;;;;0.80;0.80;;;32.80;52.40;;;33.10;27.32;100636.13;5030688;28;20693;-67
2023/08/08 08:55:46;;;;;;;0.80;0.80;;;32.90;52.40;;;33.34;27.42;100632.00;5038375;28;20735;-66
2023/08/08 08:58:16;;;;;;;0.90;0.90;;;33.20;52.10;;;32.69;26.55;100636.81;5024801;28;20806;-65
2023/08/08 09:00:46;;;;;;;0.80;0.80;;;32.70;51.10;;;32.01;27.83;100630.03;5023069;28;20640;-64
2023/08/08 09:03:13;;;;;;;0.77;0.77;;;31.90;51.90;;;31.63;28.35;100619.25;5020170;28;20983;-65
2023/08/08 09:05:42;;;;;;;1.20;1.07;;;31.40;52.60;;;31.31;29.06;100620.88;5021105;28;20644;-65
2023/08/08 09:08:11;;;;;;;0.87;0.87;;;31.00;53.20;;;30.87;29.82;100621.75;5029586;28;20771;-67
2023/08/08 09:10:39;;;;;;;0.80;0.80;;;30.50;54.00;;;30.21;30.62;100609.72;5026448;28;20652;-66
2023/08/08 09:13:06;;;;;;;0.90;0.90;;;29.90;54.50;;;29.93;31.72;100612.34;5044754;28;20698;-66
2023/08/08 09:15:34;;;;;;;0.80;0.80;;;29.60;55.60;;;29.76;31.37;100609.56;5024053;28;20628;-66
2023/08/08 09:18:01;;;;;;;0.80;0.80;;;29.30;55.90;;;29.42;32.34;100606.88;5026903;28;20877;-66
2023/08/08 09:20:29;;;;;;;1.17;0.87;;;29.00;56.20;;;29.18;32.78;100600.66;5030792;28;20717;-68
2023/08/08 09:22:56;;;;;;;0.70;0.70;;;28.80;57.20;;;28.83;33.22;100600.59;5029308;28;20640;-66
2023/08/08 09:25:24;;;;;;;0.97;0.97;;;28.50;56.90;;;28.59;33.48;100604.22;5031163;28;20632;-66
2023/08/08 09:27:55;;;;;;;0.70;0.70;;;28.20;57.60;;;28.09;32.97;100584.03;5024427;28;20739;-66
2023/08/08 09:30:22;;;;;;;1.17;1.17;;;27.80;57.00;;;27.07;34.49;100589.94;5012914;28;20632;-65
2023/08/08 09:32:49;;;;;;;1.17;1.07;;;26.90;57.70;;;26.61;35.72;100592.09;5016619;28;21238;-66
2023/08/08 09:35:16;;;;;;;0.80;0.80;;;26.30;59.10;;;26.31;35.75;100593.69;5026674;28;21292;-66
2023/08/08 09:37:43;;;;;;;0.80;0.80;;;26.00;59.80;;;25.84;36.34;100590.38;5024881;28;20702;-65
2023/08/08 09:40:11;;;;;;;2.10;1.10;;;25.60;59.90;;;25.68;37.43;100590.84;5023519;28;20699;-66
2023/08/08 09:42:41;;;;;;;0.70;0.70;;;25.30;61.00;;;25.70;37.73;100588.78;5020590;28;21127;-66
2023/08/08 09:45:09;;;;;;;0.80;0.80;;;25.20;61.80;;;25.59;38.21;100589.41;5026517;28;20629;-66
2023/08/08 09:47:38;;;;;;;1.00;1.00;;;25.20;62.00;;;25.44;38.24;100583.47;5043224;28;21049;-66
2023/08/08 09:50:06;;;;;;;0.93;0.87;;;25.00;62.60;;;25.46;38.30;100586.75;5026794;28;20636;-67
2023/08/08 09:52:35;;;;;;;1.70;1.03;;;25.00;62.90;;;25.46;37.84;100592.09;5030886;28;21193;-66
2023/08/08 09:55:03;;;;;;;1.20;0.87;;;25.00;62.30;;;25.39;38.34;100585.91;5024289;28;20706;-66
2023/08/08 09:57:30;;;;;;;0.70;0.70;;;25.00;62.40;;;25.47;38.12;100579.56;5030658;28;20648;-66
2023/08/08 09:59:58;;;;;;;2.20;1.00;;;25.00;62.70;;;25.53;38.40;100576.06;5029182;28;20616;-64
2023/08/08 10:02:25;;;;;;;3.07;0.97;;;25.10;62.90;;;25.36;37.85;100576.44;5035050;28;20651;-66
2023/08/08 10:04:53;;;;;;;0.70;0.70;;;25.00;62.00;;;25.27;38.02;100566.19;5021225;28;20675;-66
2023/08/08 10:07:22;;;;;;;0.80;0.80;;;24.90;62.50;;;25.48;38.11;100571.34;5023303;28;21052;-66
2023/08/08 10:09:49;;;;;;;0.90;0.90;;;25.10;62.70;;;25.85;37.77;100580.50;5020086;28;20677;-65
2023/08/08 10:12:17;;;;;;;0.80;0.80;;;25.50;62.50;;;26.33;37.13;100572.91;5023460;28;20637;-66
2023/08/08 10:14:45;;;;;;;1.00;1.00;;;26.00;61.60;;;26.84;36.48;100579.84;5024006;28;20732;-66